sensor_id;sensor_type;location;lat;lon;timestamp;pressure;altitude;pressure_sealevel;temperature;humidity
66176;BME280;52977;44.816;20.538;2023-04-28T00:02:23;100264.09;;;10.43;48.86
66176;BME280;52977;44.816;20.538;2023-04-28T00:04:49;100266.41;;;10.50;49.70
66176;BME280;52977;44.816;20.538;2023-04-28T00:07:15;100267.41;;;10.54;49.71
66176;BME280;52977;44.816;20.538;2023-04-28T00:09:41;100270.78;;;10.51;49.88
66176;BME280;52977;44.816;20.538;2023-04-28T00:12:07;100228.47;;;10.26;50.15
66176;BME280;52977;44.816;20.538;2023-04-28T00:14:33;100274.44;;;10.47;50.47
66176;BME280;52977;44.816;20.538;2023-04-28T00:16:59;100249.19;;;10.27;50.46
66176;BME280;52977;44.816;20.538;2023-04-28T00:19:26;100271.19;;;10.45;51.10
66176;BME280;52977;44.816;20.538;2023-04-28T00:21:52;100268.75;;;10.43;51.08
66176;BME280;52977;44.816;20.538;2023-04-28T00:24:18;100279.88;;;10.33;51.45
66176;BME280;52977;44.816;20.538;2023-04-28T00:26:44;100260.53;;;10.06;51.59
66176;BME280;52977;44.816;20.538;2023-04-28T00:29:11;100270.59;;;10.20;51.95
66176;BME280;52977;44.816;20.538;2023-04-28T00:31:37;100281.09;;;10.26;51.90
66176;BME280;52977;44.816;20.538;2023-04-28T00:34:03;100268.06;;;10.23;50.55
66176;BME280;52977;44.816;20.538;2023-04-28T00:36:29;100254.75;;;10.08;50.85
66176;BME280;52977;44.816;20.538;2023-04-28T00:38:58;100290.13;;;10.13;51.08
66176;BME280;52977;44.816;20.538;2023-04-28T00:41:24;100288.81;;;10.11;50.58
66176;BME280;52977;44.816;20.538;2023-04-28T00:43:50;100301.31;;;10.12;50.72
66176;BME280;52977;44.816;20.538;2023-04-28T00:46:23;100281.03;;;9.90;50.45
66176;BME280;52977;44.816;20.538;2023-04-28T00:48:50;100297.47;;;10.13;50.28
66176;BME280;52977;44.816;20.538;2023-04-28T00:51:16;100290.63;;;10.01;50.93
66176;BME280;52977;44.816;20.538;2023-04-28T00:53:44;100265.78;;;9.75;50.83
66176;BME280;52977;44.816;20.538;2023-04-28T00:56:10;100253.56;;;9.86;50.65
66176;BME280;52977;44.816;20.538;2023-04-28T00:58:37;100312.13;;;10.17;50.74
66176;BME280;52977;44.816;20.538;2023-04-28T01:01:04;100303.16;;;10.16;50.35
66176;BME280;52977;44.816;20.538;2023-04-28T01:03:33;100270.63;;;9.92;50.07
66176;BME280;52977;44.816;20.538;2023-04-28T01:06:01;100317.88;;;10.29;50.34
66176;BME280;52977;44.816;20.538;2023-04-28T01:08:29;100327.31;;;10.23;50.32
66176;BME280;52977;44.816;20.538;2023-04-28T01:10:56;100316.88;;;9.97;51.06
66176;BME280;52977;44.816;20.538;2023-04-28T01:13:49;100321.53;;;9.97;52.23
66176;BME280;52977;44.816;20.538;2023-04-28T01:16:15;100264.97;;;9.61;52.91
66176;BME280;52977;44.816;20.538;2023-04-28T01:18:45;100320.72;;;9.82;53.49
66176;BME280;52977;44.816;20.538;2023-04-28T01:21:12;100306.31;;;9.49;56.90
66176;BME280;52977;44.816;20.538;2023-04-28T01:23:38;100323.53;;;9.63;58.31
66176;BME280;52977;44.816;20.538;2023-04-28T01:26:05;100224.94;;;9.14;59.88
66176;BME280;52977;44.816;20.538;2023-04-28T01:28:30;100277.66;;;9.37;61.09
66176;BME280;52977;44.816;20.538;2023-04-28T01:30:56;100313.81;;;9.57;63.71
66176;BME280;52977;44.816;20.538;2023-04-28T01:33:22;100266.59;;;9.15;64.72
66176;BME280;52977;44.816;20.538;2023-04-28T01:35:48;100330.09;;;9.76;65.72
66176;BME280;52977;44.816;20.538;2023-04-28T01:38:15;100296.03;;;9.46;66.80
66176;BME280;52977;44.816;20.538;2023-04-28T01:40:42;100306.25;;;9.54;67.31
66176;BME280;52977;44.816;20.538;2023-04-28T01:43:09;100324.31;;;9.50;68.38
66176;BME280;52977;44.816;20.538;2023-04-28T01:45:35;100330.31;;;9.66;68.22
66176;BME280;52977;44.816;20.538;2023-04-28T01:48:01;100320.97;;;9.53;68.79
66176;BME280;52977;44.816;20.538;2023-04-28T01:50:26;100313.41;;;9.50;69.58
66176;BME280;52977;44.816;20.538;2023-04-28T01:52:52;100279.84;;;9.21;69.80
66176;BME280;52977;44.816;20.538;2023-04-28T01:55:18;100290.91;;;9.11;70.19
66176;BME280;52977;44.816;20.538;2023-04-28T01:57:45;100249.69;;;8.85;70.00
66176;BME280;52977;44.816;20.538;2023-04-28T02:00:11;100326.38;;;9.39;69.63
66176;BME280;52977;44.816;20.538;2023-04-28T02:02:46;100331.78;;;9.58;69.71
66176;BME280;52977;44.816;20.538;2023-04-28T02:05:13;100333.94;;;9.75;68.35
66176;BME280;52977;44.816;20.538;2023-04-28T02:07:39;100278.28;;;9.48;66.61
66176;BME280;52977;44.816;20.538;2023-04-28T02:10:06;100308.38;;;9.71;65.49
66176;BME280;52977;44.816;20.538;2023-04-28T02:12:33;100321.34;;;9.32;67.08
66176;BME280;52977;44.816;20.538;2023-04-28T02:14:59;100303.84;;;9.19;66.17
66176;BME280;52977;44.816;20.538;2023-04-28T02:17:28;100312.91;;;9.48;64.15
66176;BME280;52977;44.816;20.538;2023-04-28T02:19:55;100270.94;;;9.16;63.02
66176;BME280;52977;44.816;20.538;2023-04-28T02:22:22;100341.50;;;9.64;62.31
66176;BME280;52977;44.816;20.538;2023-04-28T02:24:48;100320.91;;;9.25;62.74
66176;BME280;52977;44.816;20.538;2023-04-28T02:27:14;100318.75;;;9.41;62.90
66176;BME280;52977;44.816;20.538;2023-04-28T02:29:40;100332.69;;;9.53;62.50
66176;BME280;52977;44.816;20.538;2023-04-28T02:32:06;100338.22;;;9.48;62.43
66176;BME280;52977;44.816;20.538;2023-04-28T02:34:33;100283.47;;;9.17;63.02
66176;BME280;52977;44.816;20.538;2023-04-28T02:37:00;100342.31;;;9.65;62.14
66176;BME280;52977;44.816;20.538;2023-04-28T02:39:26;100334.22;;;9.60;59.86
66176;BME280;52977;44.816;20.538;2023-04-28T02:41:55;100338.47;;;9.66;58.82
66176;BME280;52977;44.816;20.538;2023-04-28T02:44:22;100324.94;;;9.61;58.51
66176;BME280;52977;44.816;20.538;2023-04-28T02:46:49;100326.56;;;9.62;57.54
66176;BME280;52977;44.816;20.538;2023-04-28T02:49:15;100339.19;;;9.71;57.80
66176;BME280;52977;44.816;20.538;2023-04-28T02:51:42;100328.38;;;9.66;57.24
66176;BME280;52977;44.816;20.538;2023-04-28T02:54:08;100290.47;;;9.37;58.32
66176;BME280;52977;44.816;20.538;2023-04-28T02:56:34;100332.00;;;9.62;58.80
66176;BME280;52977;44.816;20.538;2023-04-28T02:59:03;100308.84;;;9.45;58.12
66176;BME280;52977;44.816;20.538;2023-04-28T03:01:29;100340.28;;;9.70;56.18
66176;BME280;52977;44.816;20.538;2023-04-28T03:03:55;100335.34;;;9.72;55.46
66176;BME280;52977;44.816;20.538;2023-04-28T03:06:21;100211.16;;;8.92;54.44
66176;BME280;52977;44.816;20.538;2023-04-28T03:08:47;100247.03;;;9.13;54.88
66176;BME280;52977;44.816;20.538;2023-04-28T03:11:14;100338.06;;;9.72;55.47
66176;BME280;52977;44.816;20.538;2023-04-28T03:13:40;100293.91;;;9.43;54.14
66176;BME280;52977;44.816;20.538;2023-04-28T03:16:06;100329.19;;;9.67;53.23
66176;BME280;52977;44.816;20.538;2023-04-28T03:18:33;100323.72;;;9.67;53.05
66176;BME280;52977;44.816;20.538;2023-04-28T03:20:59;100347.97;;;9.82;53.09
66176;BME280;52977;44.816;20.538;2023-04-28T03:23:26;100341.72;;;9.82;54.22
66176;BME280;52977;44.816;20.538;2023-04-28T03:25:53;100347.97;;;9.82;53.58
66176;BME280;52977;44.816;20.538;2023-04-28T03:28:19;100324.75;;;9.71;53.37
66176;BME280;52977;44.816;20.538;2023-04-28T03:30:46;100318.09;;;9.63;53.85
66176;BME280;52977;44.816;20.538;2023-04-28T03:33:12;100291.19;;;9.43;53.53
66176;BME280;52977;44.816;20.538;2023-04-28T03:35:38;100318.69;;;9.60;54.54
66176;BME280;52977;44.816;20.538;2023-04-28T03:38:04;100292.06;;;9.24;55.25
66176;BME280;52977;44.816;20.538;2023-04-28T03:40:32;100356.31;;;9.58;55.75
66176;BME280;52977;44.816;20.538;2023-04-28T03:43:10;100326.53;;;9.15;56.08
66176;BME280;52977;44.816;20.538;2023-04-28T03:45:42;100366.47;;;9.38;56.23
66176;BME280;52977;44.816;20.538;2023-04-28T03:48:08;100314.00;;;9.14;56.85
66176;BME280;52977;44.816;20.538;2023-04-28T03:50:35;100371.72;;;9.49;57.10
66176;BME280;52977;44.816;20.538;2023-04-28T03:53:01;100315.75;;;9.23;56.37
66176;BME280;52977;44.816;20.538;2023-04-28T03:55:27;100356.22;;;9.49;56.61
66176;BME280;52977;44.816;20.538;2023-04-28T03:57:54;100363.28;;;9.50;55.90
66176;BME280;52977;44.816;20.538;2023-04-28T04:00:20;100363.47;;;9.54;56.33
66176;BME280;52977;44.816;20.538;2023-04-28T04:02:50;100339.09;;;9.30;56.49
66176;BME280;52977;44.816;20.538;2023-04-28T04:05:16;100369.75;;;9.54;56.46
66176;BME280;52977;44.816;20.538;2023-04-28T04:07:42;100379.38;;;9.66;56.82
66176;BME280;52977;44.816;20.538;2023-04-28T04:10:08;100265.47;;;9.02;56.79
66176;BME280;52977;44.816;20.538;2023-04-28T04:12:36;100381.41;;;9.74;56.43
66176;BME280;52977;44.816;20.538;2023-04-28T04:15:03;100302.00;;;9.15;55.88
66176;BME280;52977;44.816;20.538;2023-04-28T04:17:29;100340.97;;;9.48;54.87
66176;BME280;52977;44.816;20.538;2023-04-28T04:19:56;100345.00;;;9.51;54.54
66176;BME280;52977;44.816;20.538;2023-04-28T04:22:23;100362.38;;;9.55;54.61
66176;BME280;52977;44.816;20.538;2023-04-28T04:24:49;100315.91;;;9.32;55.58
66176;BME280;52977;44.816;20.538;2023-04-28T04:27:16;100390.38;;;9.74;56.47
66176;BME280;52977;44.816;20.538;2023-04-28T04:29:42;100389.38;;;9.70;56.27
66176;BME280;52977;44.816;20.538;2023-04-28T04:32:13;100343.25;;;9.41;55.35
66176;BME280;52977;44.816;20.538;2023-04-28T04:34:40;100319.78;;;9.26;54.55
66176;BME280;52977;44.816;20.538;2023-04-28T04:37:08;100377.44;;;9.66;54.06
66176;BME280;52977;44.816;20.538;2023-04-28T04:39:40;100353.59;;;9.58;52.81
66176;BME280;52977;44.816;20.538;2023-04-28T04:42:07;100386.66;;;9.84;52.82
66176;BME280;52977;44.816;20.538;2023-04-28T04:44:43;100398.00;;;9.91;53.08
66176;BME280;52977;44.816;20.538;2023-04-28T04:47:17;100391.13;;;9.94;51.86
66176;BME280;52977;44.816;20.538;2023-04-28T04:49:45;100398.41;;;9.99;52.16
66176;BME280;52977;44.816;20.538;2023-04-28T04:52:11;100389.53;;;10.07;52.80
66176;BME280;52977;44.816;20.538;2023-04-28T04:54:37;100399.13;;;10.18;52.24
66176;BME280;52977;44.816;20.538;2023-04-28T04:57:04;100402.78;;;10.14;53.26
66176;BME280;52977;44.816;20.538;2023-04-28T04:59:50;100350.00;;;9.77;53.23
66176;BME280;52977;44.816;20.538;2023-04-28T05:02:17;100361.34;;;9.84;52.51
66176;BME280;52977;44.816;20.538;2023-04-28T05:04:43;100393.56;;;10.09;51.87
66176;BME280;52977;44.816;20.538;2023-04-28T05:07:11;100401.06;;;10.18;52.28
66176;BME280;52977;44.816;20.538;2023-04-28T05:09:39;100251.66;;;9.12;52.65
66176;BME280;52977;44.816;20.538;2023-04-28T05:12:05;100415.50;;;10.18;52.49
66176;BME280;52977;44.816;20.538;2023-04-28T05:14:31;100411.34;;;10.21;52.18
66176;BME280;52977;44.816;20.538;2023-04-28T05:16:58;100410.75;;;10.24;52.23
66176;BME280;52977;44.816;20.538;2023-04-28T05:19:30;100411.56;;;10.24;52.24
66176;BME280;52977;44.816;20.538;2023-04-28T05:21:56;100402.78;;;10.27;51.23
66176;BME280;52977;44.816;20.538;2023-04-28T05:24:23;100357.31;;;9.95;50.71
66176;BME280;52977;44.816;20.538;2023-04-28T05:26:50;100406.22;;;10.33;50.53
66176;BME280;52977;44.816;20.538;2023-04-28T05:29:18;100350.22;;;10.08;50.75
66176;BME280;52977;44.816;20.538;2023-04-28T05:31:45;100373.25;;;10.02;50.72
66176;BME280;52977;44.816;20.538;2023-04-28T05:34:11;100395.38;;;10.00;49.66
66176;BME280;52977;44.816;20.538;2023-04-28T05:36:37;100405.38;;;9.91;50.21
66176;BME280;52977;44.816;20.538;2023-04-28T05:39:07;100401.09;;;9.85;52.69
66176;BME280;52977;44.816;20.538;2023-04-28T05:41:34;100403.38;;;9.97;53.26
66176;BME280;52977;44.816;20.538;2023-04-28T05:44:01;100348.56;;;9.65;52.83
66176;BME280;52977;44.816;20.538;2023-04-28T05:46:28;100407.31;;;10.18;53.19
66176;BME280;52977;44.816;20.538;2023-04-28T05:48:53;100417.84;;;10.25;53.04
66176;BME280;52977;44.816;20.538;2023-04-28T05:51:19;100388.78;;;10.34;52.43
66176;BME280;52977;44.816;20.538;2023-04-28T05:53:47;100403.88;;;10.26;52.69
66176;BME280;52977;44.816;20.538;2023-04-28T05:56:14;100371.34;;;10.02;51.93
66176;BME280;52977;44.816;20.538;2023-04-28T05:58:42;100411.75;;;10.28;51.50
66176;BME280;52977;44.816;20.538;2023-04-28T06:01:10;100406.16;;;10.38;51.60
66176;BME280;52977;44.816;20.538;2023-04-28T06:03:38;100361.31;;;10.12;51.52
66176;BME280;52977;44.816;20.538;2023-04-28T06:06:07;100412.72;;;10.51;51.03
66176;BME280;52977;44.816;20.538;2023-04-28T06:08:33;100421.81;;;10.47;51.33
66176;BME280;52977;44.816;20.538;2023-04-28T06:11:03;100385.88;;;10.25;51.91
66176;BME280;52977;44.816;20.538;2023-04-28T06:13:29;100408.19;;;10.47;50.47
66176;BME280;52977;44.816;20.538;2023-04-28T06:15:55;100421.00;;;10.60;49.02
66176;BME280;52977;44.816;20.538;2023-04-28T06:18:22;100357.88;;;10.06;49.47
66176;BME280;52977;44.816;20.538;2023-04-28T06:20:49;100368.72;;;10.11;49.42
66176;BME280;52977;44.816;20.538;2023-04-28T06:23:14;100430.00;;;10.47;49.70
66176;BME280;52977;44.816;20.538;2023-04-28T06:25:46;100403.78;;;10.18;49.52
66176;BME280;52977;44.816;20.538;2023-04-28T06:28:12;100391.25;;;10.03;49.66
66176;BME280;52977;44.816;20.538;2023-04-28T06:30:39;100423.38;;;10.34;49.35
66176;BME280;52977;44.816;20.538;2023-04-28T06:33:06;100369.09;;;10.04;48.15
66176;BME280;52977;44.816;20.538;2023-04-28T06:35:32;100432.84;;;10.41;47.19
66176;BME280;52977;44.816;20.538;2023-04-28T06:38:01;100436.06;;;10.43;47.88
66176;BME280;52977;44.816;20.538;2023-04-28T06:40:29;100391.34;;;10.25;48.87
66176;BME280;52977;44.816;20.538;2023-04-28T06:42:57;100406.22;;;10.19;49.63
66176;BME280;52977;44.816;20.538;2023-04-28T06:45:31;100439.09;;;10.42;49.79
66176;BME280;52977;44.816;20.538;2023-04-28T06:47:57;100371.03;;;9.90;50.61
66176;BME280;52977;44.816;20.538;2023-04-28T06:50:23;100379.31;;;10.13;51.34
66176;BME280;52977;44.816;20.538;2023-04-28T06:52:49;100426.06;;;10.53;50.85
66176;BME280;52977;44.816;20.538;2023-04-28T06:55:16;100436.25;;;10.61;50.21
66176;BME280;52977;44.816;20.538;2023-04-28T06:57:43;100435.47;;;10.60;48.79
66176;BME280;52977;44.816;20.538;2023-04-28T07:00:10;100434.03;;;10.63;49.25
66176;BME280;52977;44.816;20.538;2023-04-28T07:02:36;100401.56;;;10.34;48.54
66176;BME280;52977;44.816;20.538;2023-04-28T07:05:03;100413.13;;;10.45;48.90
66176;BME280;52977;44.816;20.538;2023-04-28T07:07:30;100433.84;;;10.59;48.21
66176;BME280;52977;44.816;20.538;2023-04-28T07:09:56;100425.25;;;10.66;47.68
66176;BME280;52977;44.816;20.538;2023-04-28T07:12:23;100411.00;;;10.55;47.82
66176;BME280;52977;44.816;20.538;2023-04-28T07:14:50;100372.88;;;10.36;47.91
66176;BME280;52977;44.816;20.538;2023-04-28T07:17:16;100384.41;;;10.47;47.48
66176;BME280;52977;44.816;20.538;2023-04-28T07:19:42;100362.66;;;10.28;45.72
66176;BME280;52977;44.816;20.538;2023-04-28T07:22:08;100414.69;;;10.87;47.24
66176;BME280;52977;44.816;20.538;2023-04-28T07:24:34;100421.44;;;11.04;46.59
66176;BME280;52977;44.816;20.538;2023-04-28T07:27:01;100372.66;;;10.74;45.43
66176;BME280;52977;44.816;20.538;2023-04-28T07:29:28;100367.44;;;10.87;42.80
66176;BME280;52977;44.816;20.538;2023-04-28T07:31:59;100410.38;;;11.09;39.46
66176;BME280;52977;44.816;20.538;2023-04-28T07:34:26;100353.81;;;10.73;42.60
66176;BME280;52977;44.816;20.538;2023-04-28T07:36:53;100374.84;;;10.86;40.25
66176;BME280;52977;44.816;20.538;2023-04-28T07:39:19;100377.47;;;10.91;41.78
66176;BME280;52977;44.816;20.538;2023-04-28T07:41:45;100407.97;;;11.07;42.16
66176;BME280;52977;44.816;20.538;2023-04-28T07:44:12;100420.63;;;11.26;40.25
66176;BME280;52977;44.816;20.538;2023-04-28T07:46:37;100428.25;;;11.29;38.32
66176;BME280;52977;44.816;20.538;2023-04-28T07:49:04;100419.22;;;11.28;38.01
66176;BME280;52977;44.816;20.538;2023-04-28T07:51:30;100424.09;;;11.32;37.89
66176;BME280;52977;44.816;20.538;2023-04-28T07:53:56;100435.81;;;11.32;37.13
66176;BME280;52977;44.816;20.538;2023-04-28T07:56:23;100413.59;;;11.25;38.55
66176;BME280;52977;44.816;20.538;2023-04-28T07:58:50;100371.56;;;10.98;39.60
66176;BME280;52977;44.816;20.538;2023-04-28T08:01:16;100426.25;;;11.43;39.31
66176;BME280;52977;44.816;20.538;2023-04-28T08:03:41;100426.25;;;11.43;40.76
66176;BME280;52977;44.816;20.538;2023-04-28T08:06:07;100419.31;;;11.60;40.79
66176;BME280;52977;44.816;20.538;2023-04-28T08:08:34;100406.25;;;11.57;40.18
66176;BME280;52977;44.816;20.538;2023-04-28T08:11:00;100411.94;;;11.69;38.86
66176;BME280;52977;44.816;20.538;2023-04-28T08:13:27;100424.03;;;11.68;40.44
66176;BME280;52977;44.816;20.538;2023-04-28T08:15:54;100412.47;;;11.71;39.34
66176;BME280;52977;44.816;20.538;2023-04-28T08:18:26;100369.84;;;11.48;38.84
66176;BME280;52977;44.816;20.538;2023-04-28T08:20:52;100415.63;;;11.65;38.03
66176;BME280;52977;44.816;20.538;2023-04-28T08:23:19;100393.50;;;11.52;39.04
66176;BME280;52977;44.816;20.538;2023-04-28T08:25:45;100409.84;;;11.66;40.06
66176;BME280;52977;44.816;20.538;2023-04-28T08:28:12;100413.75;;;11.74;41.15
66176;BME280;52977;44.816;20.538;2023-04-28T08:30:38;100376.31;;;11.52;40.04
66176;BME280;52977;44.816;20.538;2023-04-28T08:33:05;100361.28;;;11.40;40.00
66176;BME280;52977;44.816;20.538;2023-04-28T08:35:31;100335.81;;;11.31;40.68
66176;BME280;52977;44.816;20.538;2023-04-28T08:37:57;100387.47;;;11.64;40.75
66176;BME280;52977;44.816;20.538;2023-04-28T08:40:23;100411.50;;;11.76;41.29
66176;BME280;52977;44.816;20.538;2023-04-28T08:42:54;100395.94;;;11.76;40.90
66176;BME280;52977;44.816;20.538;2023-04-28T08:45:22;100422.06;;;11.91;40.60
66176;BME280;52977;44.816;20.538;2023-04-28T08:47:50;100391.72;;;11.79;40.05
66176;BME280;52977;44.816;20.538;2023-04-28T08:50:20;100416.22;;;12.07;40.44
66176;BME280;52977;44.816;20.538;2023-04-28T08:52:47;100378.78;;;11.93;40.60
66176;BME280;52977;44.816;20.538;2023-04-28T08:55:13;100304.72;;;11.50;41.09
66176;BME280;52977;44.816;20.538;2023-04-28T08:58:00;100396.59;;;12.13;38.65
66176;BME280;52977;44.816;20.538;2023-04-28T09:00:26;100399.22;;;12.27;39.95
66176;BME280;52977;44.816;20.538;2023-04-28T09:02:53;100401.66;;;12.29;38.95
66176;BME280;52977;44.816;20.538;2023-04-28T09:05:19;100368.25;;;12.09;38.61
66176;BME280;52977;44.816;20.538;2023-04-28T09:07:45;100356.06;;;11.93;37.53
66176;BME280;52977;44.816;20.538;2023-04-28T09:10:23;100384.88;;;12.22;38.01
66176;BME280;52977;44.816;20.538;2023-04-28T09:12:52;100361.66;;;12.10;37.96
66176;BME280;52977;44.816;20.538;2023-04-28T09:15:26;100384.56;;;12.23;37.86
66176;BME280;52977;44.816;20.538;2023-04-28T09:17:53;100311.31;;;11.89;38.75
66176;BME280;52977;44.816;20.538;2023-04-28T09:20:20;100392.53;;;12.42;38.55
66176;BME280;52977;44.816;20.538;2023-04-28T09:22:48;100387.69;;;12.39;37.68
66176;BME280;52977;44.816;20.538;2023-04-28T09:25:15;100371.09;;;12.44;38.17
66176;BME280;52977;44.816;20.538;2023-04-28T09:27:41;100374.19;;;12.52;38.57
66176;BME280;52977;44.816;20.538;2023-04-28T09:30:08;100369.97;;;12.45;38.37
66176;BME280;52977;44.816;20.538;2023-04-28T09:32:35;100366.13;;;12.55;39.45
66176;BME280;52977;44.816;20.538;2023-04-28T09:35:01;100353.88;;;12.53;39.35
66176;BME280;52977;44.816;20.538;2023-04-28T09:37:30;100342.78;;;12.58;38.91
66176;BME280;52977;44.816;20.538;2023-04-28T09:40:01;100351.84;;;12.67;39.66
66176;BME280;52977;44.816;20.538;2023-04-28T09:45:08;100346.03;;;12.77;39.76
66176;BME280;52977;44.816;20.538;2023-04-28T09:47:36;100347.19;;;12.85;39.75
66176;BME280;52977;44.816;20.538;2023-04-28T09:50:04;100273.69;;;12.52;38.97
66176;BME280;52977;44.816;20.538;2023-04-28T09:52:34;100290.09;;;12.70;38.81
66176;BME280;52977;44.816;20.538;2023-04-28T09:55:03;100335.38;;;12.93;39.06
66176;BME280;52977;44.816;20.538;2023-04-28T09:57:30;100311.25;;;12.87;39.42
66176;BME280;52977;44.816;20.538;2023-04-28T09:59:57;100340.72;;;13.07;38.90
66176;BME280;52977;44.816;20.538;2023-04-28T10:02:24;100331.53;;;13.03;39.30
66176;BME280;52977;44.816;20.538;2023-04-28T10:04:51;100314.44;;;12.89;39.00
66176;BME280;52977;44.816;20.538;2023-04-28T10:07:18;100321.38;;;13.04;39.82
66176;BME280;52977;44.816;20.538;2023-04-28T10:09:46;100308.31;;;12.92;39.19
66176;BME280;52977;44.816;20.538;2023-04-28T10:12:23;100204.88;;;12.36;39.26
66176;BME280;52977;44.816;20.538;2023-04-28T10:14:50;100308.16;;;13.14;38.68
66176;BME280;52977;44.816;20.538;2023-04-28T10:17:20;100306.06;;;13.20;39.26
66176;BME280;52977;44.816;20.538;2023-04-28T10:19:51;100304.56;;;13.23;37.82
66176;BME280;52977;44.816;20.538;2023-04-28T10:27:44;100295.06;;;13.38;38.87
66176;BME280;52977;44.816;20.538;2023-04-28T10:30:22;100234.25;;;13.27;40.47
66176;BME280;52977;44.816;20.538;2023-04-28T10:35:53;100277.41;;;13.56;38.60
66176;BME280;52977;44.816;20.538;2023-04-28T10:38:20;100252.66;;;13.35;38.58
66176;BME280;52977;44.816;20.538;2023-04-28T10:40:52;100286.88;;;13.76;39.60
66176;BME280;52977;44.816;20.538;2023-04-28T10:56:15;100281.09;;;13.69;38.15
66176;BME280;52977;44.816;20.538;2023-04-28T10:58:47;100265.75;;;13.68;37.12
66176;BME280;52977;44.816;20.538;2023-04-28T11:17:05;100242.34;;;14.00;37.41
66176;BME280;52977;44.816;20.538;2023-04-28T11:19:42;100244.50;;;13.95;36.30
66176;BME280;52977;44.816;20.538;2023-04-28T11:22:18;100188.16;;;13.67;37.23
66176;BME280;52977;44.816;20.538;2023-04-28T11:24:59;100242.69;;;13.99;35.99
66176;BME280;52977;44.816;20.538;2023-04-28T11:27:26;100165.06;;;13.39;36.46
66176;BME280;52977;44.816;20.538;2023-04-28T11:29:52;100194.16;;;13.61;35.79
66176;BME280;52977;44.816;20.538;2023-04-28T11:32:29;100238.06;;;13.91;36.94
66176;BME280;52977;44.816;20.538;2023-04-28T11:34:55;100260.19;;;14.15;36.11
66176;BME280;52977;44.816;20.538;2023-04-28T11:37:21;100258.41;;;14.19;36.19
66176;BME280;52977;44.816;20.538;2023-04-28T11:39:48;100242.03;;;14.23;35.87
66176;BME280;52977;44.816;20.538;2023-04-28T11:42:14;100200.56;;;13.95;36.52
66176;BME280;52977;44.816;20.538;2023-04-28T11:44:51;100219.63;;;14.21;36.56
66176;BME280;52977;44.816;20.538;2023-04-28T11:47:31;100241.00;;;14.36;36.15
66176;BME280;52977;44.816;20.538;2023-04-28T11:49:57;100248.97;;;14.50;36.24
66176;BME280;52977;44.816;20.538;2023-04-28T11:52:23;100212.25;;;14.34;35.98
66176;BME280;52977;44.816;20.538;2023-04-28T11:54:54;100219.00;;;14.58;35.77
66176;BME280;52977;44.816;20.538;2023-04-28T11:57:21;100227.72;;;14.60;35.54
66176;BME280;52977;44.816;20.538;2023-04-28T11:59:48;100231.47;;;14.55;35.83
66176;BME280;52977;44.816;20.538;2023-04-28T12:02:15;100231.13;;;14.57;35.32
66176;BME280;52977;44.816;20.538;2023-04-28T12:04:43;100227.25;;;14.79;35.43
66176;BME280;52977;44.816;20.538;2023-04-28T12:07:14;100229.13;;;14.87;34.52
66176;BME280;52977;44.816;20.538;2023-04-28T12:09:42;100219.72;;;14.88;35.46
66176;BME280;52977;44.816;20.538;2023-04-28T12:12:10;100219.44;;;15.02;36.30
66176;BME280;52977;44.816;20.538;2023-04-28T12:14:56;100225.75;;;15.15;35.47
66176;BME280;52977;44.816;20.538;2023-04-28T12:17:28;100156.63;;;14.79;35.32
66176;BME280;52977;44.816;20.538;2023-04-28T12:19:55;100211.63;;;15.04;34.81
66176;BME280;52977;44.816;20.538;2023-04-28T12:22:22;100189.63;;;14.92;35.30
66176;BME280;52977;44.816;20.538;2023-04-28T12:25:07;100190.84;;;15.15;35.72
66176;BME280;52977;44.816;20.538;2023-04-28T12:27:35;100160.25;;;14.71;35.08
66176;BME280;52977;44.816;20.538;2023-04-28T12:30:23;100131.97;;;14.70;35.12
66176;BME280;52977;44.816;20.538;2023-04-28T12:32:49;100173.28;;;15.08;35.63
66176;BME280;52977;44.816;20.538;2023-04-28T12:35:15;100165.75;;;15.17;36.27
66176;BME280;52977;44.816;20.538;2023-04-28T12:37:42;100162.97;;;15.29;35.77
66176;BME280;52977;44.816;20.538;2023-04-28T12:40:09;100151.41;;;15.24;37.20
66176;BME280;52977;44.816;20.538;2023-04-28T12:42:36;100091.47;;;14.80;35.73
66176;BME280;52977;44.816;20.538;2023-04-28T12:45:02;100156.47;;;15.46;35.96
66176;BME280;52977;44.816;20.538;2023-04-28T12:47:28;100143.38;;;15.55;34.06
66176;BME280;52977;44.816;20.538;2023-04-28T12:49:56;100150.50;;;15.57;34.98
66176;BME280;52977;44.816;20.538;2023-04-28T12:52:23;100149.94;;;15.63;34.32
66176;BME280;52977;44.816;20.538;2023-04-28T12:54:49;100131.47;;;15.64;34.34
66176;BME280;52977;44.816;20.538;2023-04-28T12:57:16;100136.59;;;15.78;34.35
66176;BME280;52977;44.816;20.538;2023-04-28T12:59:45;100138.00;;;15.71;34.33
66176;BME280;52977;44.816;20.538;2023-04-28T13:02:15;100076.72;;;15.34;34.13
66176;BME280;52977;44.816;20.538;2023-04-28T13:04:41;100122.06;;;15.65;34.09
66176;BME280;52977;44.816;20.538;2023-04-28T13:07:14;100124.81;;;15.77;34.51
66176;BME280;52977;44.816;20.538;2023-04-28T13:09:41;100110.38;;;15.80;33.82
66176;BME280;52977;44.816;20.538;2023-04-28T13:12:08;100087.22;;;15.57;34.19
66176;BME280;52977;44.816;20.538;2023-04-28T13:14:35;100110.50;;;15.84;34.96
66176;BME280;52977;44.816;20.538;2023-04-28T13:17:01;100099.00;;;15.82;34.00
66176;BME280;52977;44.816;20.538;2023-04-28T13:19:28;100085.25;;;15.82;34.22
66176;BME280;52977;44.816;20.538;2023-04-28T13:21:56;100087.25;;;15.97;33.90
66176;BME280;52977;44.816;20.538;2023-04-28T13:24:22;100095.66;;;15.88;34.25
66176;BME280;52977;44.816;20.538;2023-04-28T13:26:48;100086.16;;;15.86;33.95